sensor_id;sensor_type;location;lat;lon;timestamp;P1;durP1;ratioP1;P2;durP2;ratioP2
8161;SDS011;16778;48.154;15.094;2024-02-04T00:00:34;5.63;;;4.00;;
8161;SDS011;16778;48.154;15.094;2024-02-04T00:03:00;5.80;;;4.10;;
8161;SDS011;16778;48.154;15.094;2024-02-04T00:05:26;6.80;;;4.90;;
8161;SDS011;16778;48.154;15.094;2024-02-04T00:07:52;6.00;;;5.13;;
8161;SDS011;16778;48.154;15.094;2024-02-04T00:10:18;5.47;;;4.23;;
8161;SDS011;16778;48.154;15.094;2024-02-04T00:12:44;5.57;;;4.70;;
8161;SDS011;16778;48.154;15.094;2024-02-04T00:15:09;6.53;;;4.77;;
8161;SDS011;16778;48.154;15.094;2024-02-04T00:17:35;5.30;;;4.70;;
8161;SDS011;16778;48.154;15.094;2024-02-04T00:20:02;6.37;;;4.80;;
8161;SDS011;16778;48.154;15.094;2024-02-04T00:22:30;6.43;;;5.07;;
8161;SDS011;16778;48.154;15.094;2024-02-04T00:24:58;6.60;;;5.63;;
8161;SDS011;16778;48.154;15.094;2024-02-04T00:27:29;9.47;;;6.07;;
8161;SDS011;16778;48.154;15.094;2024-02-04T00:29:56;7.00;;;5.50;;
8161;SDS011;16778;48.154;15.094;2024-02-04T00:32:23;6.80;;;5.70;;
8161;SDS011;16778;48.154;15.094;2024-02-04T00:34:50;6.83;;;5.63;;
8161;SDS011;16778;48.154;15.094;2024-02-04T00:37:17;8.53;;;5.87;;
8161;SDS011;16778;48.154;15.094;2024-02-04T00:39:43;7.33;;;5.40;;
8161;SDS011;16778;48.154;15.094;2024-02-04T00:42:09;9.20;;;5.43;;
8161;SDS011;16778;48.154;15.094;2024-02-04T00:44:35;7.17;;;5.37;;
8161;SDS011;16778;48.154;15.094;2024-02-04T00:47:01;6.80;;;5.27;;
8161;SDS011;16778;48.154;15.094;2024-02-04T00:49:27;6.53;;;5.30;;
8161;SDS011;16778;48.154;15.094;2024-02-04T00:51:53;6.90;;;5.27;;
8161;SDS011;16778;48.154;15.094;2024-02-04T00:54:19;7.80;;;5.33;;
8161;SDS011;16778;48.154;15.094;2024-02-04T00:56:45;7.87;;;6.20;;
8161;SDS011;16778;48.154;15.094;2024-02-04T00:59:11;7.23;;;5.80;;
8161;SDS011;16778;48.154;15.094;2024-02-04T01:01:37;8.10;;;6.10;;
8161;SDS011;16778;48.154;15.094;2024-02-04T01:04:03;7.27;;;6.03;;
8161;SDS011;16778;48.154;15.094;2024-02-04T01:06:29;9.00;;;6.03;;
8161;SDS011;16778;48.154;15.094;2024-02-04T01:08:56;8.40;;;6.40;;
8161;SDS011;16778;48.154;15.094;2024-02-04T01:11:22;8.00;;;6.50;;
8161;SDS011;16778;48.154;15.094;2024-02-04T01:13:48;9.00;;;6.80;;
8161;SDS011;16778;48.154;15.094;2024-02-04T01:16:14;10.10;;;5.93;;
8161;SDS011;16778;48.154;15.094;2024-02-04T01:18:40;7.93;;;6.53;;
8161;SDS011;16778;48.154;15.094;2024-02-04T01:21:05;8.70;;;6.40;;
8161;SDS011;16778;48.154;15.094;2024-02-04T01:23:33;8.83;;;6.53;;
8161;SDS011;16778;48.154;15.094;2024-02-04T01:25:59;6.90;;;6.17;;
8161;SDS011;16778;48.154;15.094;2024-02-04T01:28:25;9.00;;;6.97;;
8161;SDS011;16778;48.154;15.094;2024-02-04T01:30:51;8.63;;;6.33;;
8161;SDS011;16778;48.154;15.094;2024-02-04T01:33:17;9.13;;;6.40;;
8161;SDS011;16778;48.154;15.094;2024-02-04T01:35:44;7.20;;;5.60;;
8161;SDS011;16778;48.154;15.094;2024-02-04T01:38:10;11.27;;;7.67;;
8161;SDS011;16778;48.154;15.094;2024-02-04T01:40:36;9.50;;;6.97;;
8161;SDS011;16778;48.154;15.094;2024-02-04T01:43:02;9.00;;;6.83;;
8161;SDS011;16778;48.154;15.094;2024-02-04T01:45:28;7.60;;;6.50;;
8161;SDS011;16778;48.154;15.094;2024-02-04T01:47:54;7.63;;;6.00;;
8161;SDS011;16778;48.154;15.094;2024-02-04T01:50:20;8.90;;;6.80;;
8161;SDS011;16778;48.154;15.094;2024-02-04T01:52:47;9.33;;;7.13;;
8161;SDS011;16778;48.154;15.094;2024-02-04T01:55:13;9.93;;;7.70;;
8161;SDS011;16778;48.154;15.094;2024-02-04T01:57:39;8.63;;;7.37;;
8161;SDS011;16778;48.154;15.094;2024-02-04T02:00:06;11.67;;;7.73;;
8161;SDS011;16778;48.154;15.094;2024-02-04T02:02:38;10.40;;;7.87;;
8161;SDS011;16778;48.154;15.094;2024-02-04T02:05:06;8.73;;;7.00;;
8161;SDS011;16778;48.154;15.094;2024-02-04T02:07:33;10.00;;;7.03;;
8161;SDS011;16778;48.154;15.094;2024-02-04T02:09:59;10.57;;;7.33;;
8161;SDS011;16778;48.154;15.094;2024-02-04T02:12:25;9.57;;;7.53;;
8161;SDS011;16778;48.154;15.094;2024-02-04T02:15:01;11.40;;;7.57;;
8161;SDS011;16778;48.154;15.094;2024-02-04T02:17:58;10.03;;;7.83;;
8161;SDS011;16778;48.154;15.094;2024-02-04T02:20:29;11.07;;;7.93;;
8161;SDS011;16778;48.154;15.094;2024-02-04T02:23:30;11.83;;;8.17;;
8161;SDS011;16778;48.154;15.094;2024-02-04T02:26:02;9.87;;;8.17;;
8161;SDS011;16778;48.154;15.094;2024-02-04T02:28:30;12.57;;;8.67;;
8161;SDS011;16778;48.154;15.094;2024-02-04T02:30:55;11.07;;;8.73;;
8161;SDS011;16778;48.154;15.094;2024-02-04T02:33:21;9.47;;;7.57;;
8161;SDS011;16778;48.154;15.094;2024-02-04T02:35:49;12.40;;;8.33;;
8161;SDS011;16778;48.154;15.094;2024-02-04T02:38:26;10.27;;;7.70;;
8161;SDS011;16778;48.154;15.094;2024-02-04T02:41:09;10.40;;;7.80;;
8161;SDS011;16778;48.154;15.094;2024-02-04T02:43:37;10.77;;;7.80;;
8161;SDS011;16778;48.154;15.094;2024-02-04T02:46:06;10.10;;;7.87;;
8161;SDS011;16778;48.154;15.094;2024-02-04T02:48:32;9.83;;;8.10;;
8161;SDS011;16778;48.154;15.094;2024-02-04T02:50:59;12.30;;;8.37;;
8161;SDS011;16778;48.154;15.094;2024-02-04T02:53:25;11.13;;;7.90;;
8161;SDS011;16778;48.154;15.094;2024-02-04T02:55:50;9.93;;;7.83;;
8161;SDS011;16778;48.154;15.094;2024-02-04T02:58:16;11.57;;;8.53;;
8161;SDS011;16778;48.154;15.094;2024-02-04T03:00:42;11.23;;;8.50;;
8161;SDS011;16778;48.154;15.094;2024-02-04T03:03:10;9.13;;;7.60;;
8161;SDS011;16778;48.154;15.094;2024-02-04T03:05:36;9.00;;;6.80;;
8161;SDS011;16778;48.154;15.094;2024-02-04T03:08:03;11.70;;;8.80;;
8161;SDS011;16778;48.154;15.094;2024-02-04T03:10:29;8.17;;;7.07;;
8161;SDS011;16778;48.154;15.094;2024-02-04T03:12:55;10.43;;;7.07;;
8161;SDS011;16778;48.154;15.094;2024-02-04T03:15:21;9.73;;;7.60;;
8161;SDS011;16778;48.154;15.094;2024-02-04T03:17:46;11.13;;;7.43;;
8161;SDS011;16778;48.154;15.094;2024-02-04T03:20:12;7.93;;;6.47;;
8161;SDS011;16778;48.154;15.094;2024-02-04T03:22:38;7.43;;;5.10;;
8161;SDS011;16778;48.154;15.094;2024-02-04T03:25:04;8.90;;;6.60;;
8161;SDS011;16778;48.154;15.094;2024-02-04T03:27:30;11.93;;;7.70;;
8161;SDS011;16778;48.154;15.094;2024-02-04T03:29:56;9.90;;;7.47;;
8161;SDS011;16778;48.154;15.094;2024-02-04T03:32:22;10.57;;;8.00;;
8161;SDS011;16778;48.154;15.094;2024-02-04T03:34:48;10.23;;;7.97;;
8161;SDS011;16778;48.154;15.094;2024-02-04T03:37:13;9.70;;;7.93;;
8161;SDS011;16778;48.154;15.094;2024-02-04T03:39:39;9.30;;;7.27;;
8161;SDS011;16778;48.154;15.094;2024-02-04T03:42:05;10.07;;;7.93;;
8161;SDS011;16778;48.154;15.094;2024-02-04T03:44:31;9.30;;;7.30;;
8161;SDS011;16778;48.154;15.094;2024-02-04T03:46:56;9.73;;;7.80;;
8161;SDS011;16778;48.154;15.094;2024-02-04T03:49:22;9.97;;;7.37;;
8161;SDS011;16778;48.154;15.094;2024-02-04T03:51:48;9.97;;;6.97;;
8161;SDS011;16778;48.154;15.094;2024-02-04T03:54:14;10.20;;;8.07;;
8161;SDS011;16778;48.154;15.094;2024-02-04T03:56:40;12.10;;;8.50;;
8161;SDS011;16778;48.154;15.094;2024-02-04T03:59:07;10.00;;;8.00;;
8161;SDS011;16778;48.154;15.094;2024-02-04T04:01:35;11.67;;;8.40;;
8161;SDS011;16778;48.154;15.094;2024-02-04T04:04:01;11.27;;;7.13;;
8161;SDS011;16778;48.154;15.094;2024-02-04T04:06:27;11.90;;;8.13;;
8161;SDS011;16778;48.154;15.094;2024-02-04T04:08:53;9.30;;;6.90;;
8161;SDS011;16778;48.154;15.094;2024-02-04T04:11:19;10.77;;;7.37;;
8161;SDS011;16778;48.154;15.094;2024-02-04T04:13:44;9.40;;;7.13;;
8161;SDS011;16778;48.154;15.094;2024-02-04T04:16:10;9.87;;;7.77;;
8161;SDS011;16778;48.154;15.094;2024-02-04T04:18:36;9.80;;;8.13;;
8161;SDS011;16778;48.154;15.094;2024-02-04T04:21:03;10.57;;;7.93;;
8161;SDS011;16778;48.154;15.094;2024-02-04T04:23:29;11.33;;;8.40;;
8161;SDS011;16778;48.154;15.094;2024-02-04T04:25:54;11.90;;;8.77;;
8161;SDS011;16778;48.154;15.094;2024-02-04T04:28:20;12.13;;;8.47;;
8161;SDS011;16778;48.154;15.094;2024-02-04T04:30:46;10.47;;;8.00;;
8161;SDS011;16778;48.154;15.094;2024-02-04T04:33:12;12.43;;;8.80;;
8161;SDS011;16778;48.154;15.094;2024-02-04T04:35:38;12.33;;;8.60;;
8161;SDS011;16778;48.154;15.094;2024-02-04T04:38:04;11.33;;;8.03;;
8161;SDS011;16778;48.154;15.094;2024-02-04T04:40:29;10.87;;;7.70;;
8161;SDS011;16778;48.154;15.094;2024-02-04T04:42:56;11.80;;;8.43;;
8161;SDS011;16778;48.154;15.094;2024-02-04T04:45:22;12.90;;;7.77;;
8161;SDS011;16778;48.154;15.094;2024-02-04T04:47:48;9.63;;;7.47;;
8161;SDS011;16778;48.154;15.094;2024-02-04T04:50:14;12.60;;;9.40;;
8161;SDS011;16778;48.154;15.094;2024-02-04T04:52:40;9.67;;;7.33;;
8161;SDS011;16778;48.154;15.094;2024-02-04T04:55:06;9.33;;;7.10;;
8161;SDS011;16778;48.154;15.094;2024-02-04T04:57:32;11.63;;;9.30;;
8161;SDS011;16778;48.154;15.094;2024-02-04T04:59:58;11.77;;;8.50;;
8161;SDS011;16778;48.154;15.094;2024-02-04T05:02:28;13.27;;;8.47;;
8161;SDS011;16778;48.154;15.094;2024-02-04T05:04:54;10.83;;;8.53;;
8161;SDS011;16778;48.154;15.094;2024-02-04T05:07:20;12.20;;;8.70;;
8161;SDS011;16778;48.154;15.094;2024-02-04T05:09:46;10.77;;;8.57;;
8161;SDS011;16778;48.154;15.094;2024-02-04T05:12:12;8.47;;;7.07;;
8161;SDS011;16778;48.154;15.094;2024-02-04T05:14:38;9.83;;;7.67;;
8161;SDS011;16778;48.154;15.094;2024-02-04T05:17:04;10.60;;;7.50;;
8161;SDS011;16778;48.154;15.094;2024-02-04T05:19:30;8.93;;;7.70;;
8161;SDS011;16778;48.154;15.094;2024-02-04T05:21:56;10.13;;;7.20;;
8161;SDS011;16778;48.154;15.094;2024-02-04T05:24:22;9.50;;;7.30;;
8161;SDS011;16778;48.154;15.094;2024-02-04T05:26:48;11.30;;;8.07;;
8161;SDS011;16778;48.154;15.094;2024-02-04T05:29:14;9.80;;;8.10;;
8161;SDS011;16778;48.154;15.094;2024-02-04T05:31:40;9.80;;;7.93;;
8161;SDS011;16778;48.154;15.094;2024-02-04T05:34:07;10.93;;;8.10;;
8161;SDS011;16778;48.154;15.094;2024-02-04T05:36:34;10.00;;;7.87;;
8161;SDS011;16778;48.154;15.094;2024-02-04T05:39:10;9.77;;;8.27;;
8161;SDS011;16778;48.154;15.094;2024-02-04T05:41:39;8.37;;;7.17;;
8161;SDS011;16778;48.154;15.094;2024-02-04T05:44:06;9.33;;;7.50;;
8161;SDS011;16778;48.154;15.094;2024-02-04T05:46:34;10.30;;;7.87;;
8161;SDS011;16778;48.154;15.094;2024-02-04T05:49:01;10.43;;;7.50;;
8161;SDS011;16778;48.154;15.094;2024-02-04T05:51:27;10.07;;;7.43;;
8161;SDS011;16778;48.154;15.094;2024-02-04T05:53:53;8.67;;;7.03;;
8161;SDS011;16778;48.154;15.094;2024-02-04T05:56:19;8.63;;;6.93;;
8161;SDS011;16778;48.154;15.094;2024-02-04T05:58:46;9.53;;;7.30;;
8161;SDS011;16778;48.154;15.094;2024-02-04T06:01:12;9.73;;;6.77;;
8161;SDS011;16778;48.154;15.094;2024-02-04T06:03:38;10.10;;;7.80;;
8161;SDS011;16778;48.154;15.094;2024-02-04T06:06:06;10.57;;;7.50;;
8161;SDS011;16778;48.154;15.094;2024-02-04T06:08:32;7.63;;;6.20;;
8161;SDS011;16778;48.154;15.094;2024-02-04T06:10:57;11.40;;;7.57;;
8161;SDS011;16778;48.154;15.094;2024-02-04T06:13:23;8.37;;;6.43;;
8161;SDS011;16778;48.154;15.094;2024-02-04T06:15:49;9.50;;;6.97;;
8161;SDS011;16778;48.154;15.094;2024-02-04T06:18:15;7.43;;;6.00;;
8161;SDS011;16778;48.154;15.094;2024-02-04T06:20:40;9.33;;;6.40;;
8161;SDS011;16778;48.154;15.094;2024-02-04T06:23:06;9.33;;;6.03;;
8161;SDS011;16778;48.154;15.094;2024-02-04T06:25:32;6.93;;;4.87;;
8161;SDS011;16778;48.154;15.094;2024-02-04T06:27:58;7.00;;;5.63;;
8161;SDS011;16778;48.154;15.094;2024-02-04T06:30:24;7.80;;;5.73;;
8161;SDS011;16778;48.154;15.094;2024-02-04T06:32:49;7.97;;;5.37;;
8161;SDS011;16778;48.154;15.094;2024-02-04T06:35:15;8.37;;;4.77;;
8161;SDS011;16778;48.154;15.094;2024-02-04T06:37:41;5.53;;;4.50;;
8161;SDS011;16778;48.154;15.094;2024-02-04T06:40:10;5.23;;;4.37;;
8161;SDS011;16778;48.154;15.094;2024-02-04T06:42:36;6.47;;;5.20;;
8161;SDS011;16778;48.154;15.094;2024-02-04T06:45:02;6.87;;;4.40;;
8161;SDS011;16778;48.154;15.094;2024-02-04T06:47:28;5.17;;;4.13;;
8161;SDS011;16778;48.154;15.094;2024-02-04T06:49:54;4.37;;;3.70;;
8161;SDS011;16778;48.154;15.094;2024-02-04T06:52:20;5.77;;;4.07;;
8161;SDS011;16778;48.154;15.094;2024-02-04T06:54:46;5.87;;;4.30;;
8161;SDS011;16778;48.154;15.094;2024-02-04T06:57:11;5.40;;;4.20;;
8161;SDS011;16778;48.154;15.094;2024-02-04T06:59:37;4.97;;;3.70;;
8161;SDS011;16778;48.154;15.094;2024-02-04T07:02:03;4.60;;;3.27;;
8161;SDS011;16778;48.154;15.094;2024-02-04T07:04:29;4.80;;;3.73;;
8161;SDS011;16778;48.154;15.094;2024-02-04T07:06:55;3.77;;;3.07;;
8161;SDS011;16778;48.154;15.094;2024-02-04T07:09:20;5.13;;;2.97;;
8161;SDS011;16778;48.154;15.094;2024-02-04T07:11:46;4.10;;;3.00;;
8161;SDS011;16778;48.154;15.094;2024-02-04T07:14:12;3.03;;;2.40;;
8161;SDS011;16778;48.154;15.094;2024-02-04T07:16:38;3.17;;;2.70;;
8161;SDS011;16778;48.154;15.094;2024-02-04T07:19:04;3.00;;;2.27;;
8161;SDS011;16778;48.154;15.094;2024-02-04T07:21:30;4.27;;;2.73;;
8161;SDS011;16778;48.154;15.094;2024-02-04T07:23:56;4.03;;;2.17;;
8161;SDS011;16778;48.154;15.094;2024-02-04T07:26:22;3.40;;;2.30;;
8161;SDS011;16778;48.154;15.094;2024-02-04T07:28:47;2.57;;;2.00;;
8161;SDS011;16778;48.154;15.094;2024-02-04T07:31:13;2.80;;;2.00;;
8161;SDS011;16778;48.154;15.094;2024-02-04T07:33:39;1.77;;;1.40;;
8161;SDS011;16778;48.154;15.094;2024-02-04T07:36:05;2.47;;;1.73;;
8161;SDS011;16778;48.154;15.094;2024-02-04T07:38:31;1.93;;;1.63;;
8161;SDS011;16778;48.154;15.094;2024-02-04T07:40:57;2.73;;;1.90;;
8161;SDS011;16778;48.154;15.094;2024-02-04T07:43:24;2.37;;;1.50;;
8161;SDS011;16778;48.154;15.094;2024-02-04T07:45:50;1.50;;;1.40;;
8161;SDS011;16778;48.154;15.094;2024-02-04T07:48:16;2.30;;;1.60;;
8161;SDS011;16778;48.154;15.094;2024-02-04T07:50:42;2.10;;;1.40;;
8161;SDS011;16778;48.154;15.094;2024-02-04T07:53:08;1.77;;;1.40;;
8161;SDS011;16778;48.154;15.094;2024-02-04T07:55:34;1.43;;;1.20;;
8161;SDS011;16778;48.154;15.094;2024-02-04T07:58:00;2.00;;;1.40;;
8161;SDS011;16778;48.154;15.094;2024-02-04T08:00:25;1.60;;;1.30;;
8161;SDS011;16778;48.154;15.094;2024-02-04T08:02:51;1.97;;;1.50;;
8161;SDS011;16778;48.154;15.094;2024-02-04T08:05:17;1.60;;;1.30;;
8161;SDS011;16778;48.154;15.094;2024-02-04T08:07:43;2.83;;;1.73;;
8161;SDS011;16778;48.154;15.094;2024-02-04T08:10:09;1.90;;;1.50;;
8161;SDS011;16778;48.154;15.094;2024-02-04T08:12:35;3.43;;;1.90;;
8161;SDS011;16778;48.154;15.094;2024-02-04T08:15:01;2.10;;;1.50;;
8161;SDS011;16778;48.154;15.094;2024-02-04T08:17:27;2.40;;;1.07;;
8161;SDS011;16778;48.154;15.094;2024-02-04T08:19:55;2.80;;;1.57;;
8161;SDS011;16778;48.154;15.094;2024-02-04T08:22:24;1.43;;;0.93;;
8161;SDS011;16778;48.154;15.094;2024-02-04T08:24:50;1.40;;;1.30;;
8161;SDS011;16778;48.154;15.094;2024-02-04T08:27:16;2.67;;;1.20;;
8161;SDS011;16778;48.154;15.094;2024-02-04T08:29:43;1.70;;;1.20;;
8161;SDS011;16778;48.154;15.094;2024-02-04T08:32:08;1.63;;;1.33;;
8161;SDS011;16778;48.154;15.094;2024-02-04T08:34:34;1.40;;;1.00;;
8161;SDS011;16778;48.154;15.094;2024-02-04T08:37:00;2.30;;;1.30;;
8161;SDS011;16778;48.154;15.094;2024-02-04T08:39:27;1.40;;;1.10;;
8161;SDS011;16778;48.154;15.094;2024-02-04T08:41:54;2.03;;;1.33;;
8161;SDS011;16778;48.154;15.094;2024-02-04T08:44:20;2.27;;;1.40;;
8161;SDS011;16778;48.154;15.094;2024-02-04T08:46:46;1.80;;;1.33;;
8161;SDS011;16778;48.154;15.094;2024-02-04T08:49:12;1.43;;;1.33;;
8161;SDS011;16778;48.154;15.094;2024-02-04T08:51:38;1.53;;;1.30;;
8161;SDS011;16778;48.154;15.094;2024-02-04T08:54:04;1.43;;;1.27;;
8161;SDS011;16778;48.154;15.094;2024-02-04T08:56:30;1.70;;;1.30;;
8161;SDS011;16778;48.154;15.094;2024-02-04T08:58:56;1.93;;;1.20;;
8161;SDS011;16778;48.154;15.094;2024-02-04T09:01:22;1.70;;;1.30;;
8161;SDS011;16778;48.154;15.094;2024-02-04T09:03:47;3.10;;;1.40;;
8161;SDS011;16778;48.154;15.094;2024-02-04T09:06:13;1.83;;;1.57;;
8161;SDS011;16778;48.154;15.094;2024-02-04T09:08:39;1.37;;;1.13;;
8161;SDS011;16778;48.154;15.094;2024-02-04T09:11:05;2.80;;;1.53;;
8161;SDS011;16778;48.154;15.094;2024-02-04T09:13:31;1.20;;;1.03;;
8161;SDS011;16778;48.154;15.094;2024-02-04T09:15:57;1.13;;;0.97;;
8161;SDS011;16778;48.154;15.094;2024-02-04T09:18:23;1.73;;;1.33;;
8161;SDS011;16778;48.154;15.094;2024-02-04T09:20:48;1.30;;;1.20;;
8161;SDS011;16778;48.154;15.094;2024-02-04T09:23:14;1.70;;;1.10;;
8161;SDS011;16778;48.154;15.094;2024-02-04T09:25:40;1.40;;;1.20;;
8161;SDS011;16778;48.154;15.094;2024-02-04T09:28:06;1.30;;;1.10;;
8161;SDS011;16778;48.154;15.094;2024-02-04T09:30:32;1.73;;;1.20;;
8161;SDS011;16778;48.154;15.094;2024-02-04T09:32:58;3.13;;;1.20;;
8161;SDS011;16778;48.154;15.094;2024-02-04T09:35:23;4.67;;;1.40;;
8161;SDS011;16778;48.154;15.094;2024-02-04T09:37:49;1.73;;;1.40;;
8161;SDS011;16778;48.154;15.094;2024-02-04T09:40:15;2.60;;;1.80;;
8161;SDS011;16778;48.154;15.094;2024-02-04T09:42:42;2.87;;;1.80;;
8161;SDS011;16778;48.154;15.094;2024-02-04T09:45:07;2.53;;;1.53;;
8161;SDS011;16778;48.154;15.094;2024-02-04T09:47:35;2.87;;;1.50;;
8161;SDS011;16778;48.154;15.094;2024-02-04T09:50:00;1.80;;;1.50;;
8161;SDS011;16778;48.154;15.094;2024-02-04T09:52:30;1.53;;;1.20;;
8161;SDS011;16778;48.154;15.094;2024-02-04T09:55:01;2.57;;;1.60;;
8161;SDS011;16778;48.154;15.094;2024-02-04T09:57:29;1.63;;;1.33;;
8161;SDS011;16778;48.154;15.094;2024-02-04T09:59:58;1.63;;;1.33;;
8161;SDS011;16778;48.154;15.094;2024-02-04T10:02:24;1.50;;;1.10;;
8161;SDS011;16778;48.154;15.094;2024-02-04T10:04:50;3.67;;;1.40;;
8161;SDS011;16778;48.154;15.094;2024-02-04T10:07:16;3.00;;;1.47;;
8161;SDS011;16778;48.154;15.094;2024-02-04T10:09:43;2.47;;;1.00;;
8161;SDS011;16778;48.154;15.094;2024-02-04T10:12:09;3.60;;;1.50;;
8161;SDS011;16778;48.154;15.094;2024-02-04T10:14:35;1.33;;;1.20;;
8161;SDS011;16778;48.154;15.094;2024-02-04T10:17:01;1.50;;;1.10;;
8161;SDS011;16778;48.154;15.094;2024-02-04T10:19:29;2.47;;;1.20;;
8161;SDS011;16778;48.154;15.094;2024-02-04T10:22:01;1.33;;;1.10;;
8161;SDS011;16778;48.154;15.094;2024-02-04T10:24:29;2.00;;;1.40;;
8161;SDS011;16778;48.154;15.094;2024-02-04T10:26:55;1.53;;;1.13;;
8161;SDS011;16778;48.154;15.094;2024-02-04T10:29:22;1.40;;;1.20;;
8161;SDS011;16778;48.154;15.094;2024-02-04T10:31:54;1.97;;;1.27;;
8161;SDS011;16778;48.154;15.094;2024-02-04T10:34:22;1.40;;;1.17;;
8161;SDS011;16778;48.154;15.094;2024-02-04T10:36:55;1.53;;;1.00;;
8161;SDS011;16778;48.154;15.094;2024-02-04T10:39:22;2.87;;;1.10;;
8161;SDS011;16778;48.154;15.094;2024-02-04T10:41:51;2.40;;;1.10;;
8161;SDS011;16778;48.154;15.094;2024-02-04T10:44:21;1.43;;;1.20;;
8161;SDS011;16778;48.154;15.094;2024-02-04T10:46:49;2.30;;;1.23;;
8161;SDS011;16778;48.154;15.094;2024-02-04T10:49:16;1.73;;;1.20;;
8161;SDS011;16778;48.154;15.094;2024-02-04T10:51:44;1.17;;;1.07;;
8161;SDS011;16778;48.154;15.094;2024-02-04T10:54:11;2.33;;;1.30;;
8161;SDS011;16778;48.154;15.094;2024-02-04T10:56:43;1.37;;;1.00;;
8161;SDS011;16778;48.154;15.094;2024-02-04T10:59:11;1.63;;;1.03;;
8161;SDS011;16778;48.154;15.094;2024-02-04T11:01:43;1.57;;;1.10;;
8161;SDS011;16778;48.154;15.094;2024-02-04T11:04:13;2.00;;;1.43;;
8161;SDS011;16778;48.154;15.094;2024-02-04T11:06:41;1.00;;;0.90;;
8161;SDS011;16778;48.154;15.094;2024-02-04T11:09:11;2.07;;;1.10;;
8161;SDS011;16778;48.154;15.094;2024-02-04T11:11:39;1.13;;;1.03;;
8161;SDS011;16778;48.154;15.094;2024-02-04T11:14:08;1.63;;;1.20;;
8161;SDS011;16778;48.154;15.094;2024-02-04T11:16:50;2.37;;;1.27;;
8161;SDS011;16778;48.154;15.094;2024-02-04T11:28:15;3.33;;;1.37;;
8161;SDS011;16778;48.154;15.094;2024-02-04T11:30:44;2.83;;;1.40;;
8161;SDS011;16778;48.154;15.094;2024-02-04T11:33:13;1.87;;;1.17;;
8161;SDS011;16778;48.154;15.094;2024-02-04T11:35:43;1.80;;;1.20;;
8161;SDS011;16778;48.154;15.094;2024-02-04T11:38:09;2.47;;;1.60;;
8161;SDS011;16778;48.154;15.094;2024-02-04T11:40:36;3.17;;;2.27;;
8161;SDS011;16778;48.154;15.094;2024-02-04T11:43:12;1.90;;;1.53;;
8161;SDS011;16778;48.154;15.094;2024-02-04T11:45:40;3.40;;;1.73;;
8161;SDS011;16778;48.154;15.094;2024-02-04T11:48:07;2.00;;;1.50;;
8161;SDS011;16778;48.154;15.094;2024-02-04T11:50:37;2.63;;;1.93;;
8161;SDS011;16778;48.154;15.094;2024-02-04T11:53:05;2.90;;;1.53;;
8161;SDS011;16778;48.154;15.094;2024-02-04T11:55:33;5.07;;;1.60;;
8161;SDS011;16778;48.154;15.094;2024-02-04T11:58:01;1.87;;;1.60;;
8161;SDS011;16778;48.154;15.094;2024-02-04T12:00:28;4.57;;;2.00;;
8161;SDS011;16778;48.154;15.094;2024-02-04T12:03:02;3.20;;;1.60;;
8161;SDS011;16778;48.154;15.094;2024-02-04T12:05:32;2.07;;;1.63;;
8161;SDS011;16778;48.154;15.094;2024-02-04T12:08:04;4.03;;;1.67;;
8161;SDS011;16778;48.154;15.094;2024-02-04T12:10:32;4.00;;;1.60;;
8161;SDS011;16778;48.154;15.094;2024-02-04T12:13:01;4.50;;;1.63;;
8161;SDS011;16778;48.154;15.094;2024-02-04T12:15:29;1.60;;;1.23;;
8161;SDS011;16778;48.154;15.094;2024-02-04T12:17:55;3.40;;;2.00;;
8161;SDS011;16778;48.154;15.094;2024-02-04T12:20:31;2.27;;;1.50;;
8161;SDS011;16778;48.154;15.094;2024-02-04T12:22:57;2.80;;;1.70;;
8161;SDS011;16778;48.154;15.094;2024-02-04T12:25:23;1.97;;;1.30;;
8161;SDS011;16778;48.154;15.094;2024-02-04T12:27:51;2.23;;;1.70;;
8161;SDS011;16778;48.154;15.094;2024-02-04T12:30:17;6.47;;;1.80;;
8161;SDS011;16778;48.154;15.094;2024-02-04T12:32:43;3.10;;;1.47;;
8161;SDS011;16778;48.154;15.094;2024-02-04T12:35:15;1.70;;;1.40;;
8161;SDS011;16778;48.154;15.094;2024-02-04T12:37:53;2.67;;;1.97;;
8161;SDS011;16778;48.154;15.094;2024-02-04T12:40:23;3.90;;;1.70;;
8161;SDS011;16778;48.154;15.094;2024-02-04T12:43:00;1.87;;;1.40;;
8161;SDS011;16778;48.154;15.094;2024-02-04T12:45:28;2.47;;;1.60;;
8161;SDS011;16778;48.154;15.094;2024-02-04T12:47:55;2.43;;;1.60;;
8161;SDS011;16778;48.154;15.094;2024-02-04T12:50:22;2.77;;;1.50;;
8161;SDS011;16778;48.154;15.094;2024-02-04T12:52:50;4.07;;;1.57;;
8161;SDS011;16778;48.154;15.094;2024-02-04T12:55:36;3.60;;;1.60;;
8161;SDS011;16778;48.154;15.094;2024-02-04T12:58:03;4.17;;;1.67;;
8161;SDS011;16778;48.154;15.094;2024-02-04T13:00:31;2.40;;;1.50;;
8161;SDS011;16778;48.154;15.094;2024-02-04T13:02:58;2.53;;;1.40;;
8161;SDS011;16778;48.154;15.094;2024-02-04T13:05:24;1.37;;;1.23;;
8161;SDS011;16778;48.154;15.094;2024-02-04T13:07:52;2.83;;;1.40;;
8161;SDS011;16778;48.154;15.094;2024-02-04T13:10:27;3.60;;;1.60;;
8161;SDS011;16778;48.154;15.094;2024-02-04T13:12:59;2.57;;;1.47;;
8161;SDS011;16778;48.154;15.094;2024-02-04T13:15:36;3.53;;;1.80;;
8161;SDS011;16778;48.154;15.094;2024-02-04T13:18:05;7.37;;;1.93;;
8161;SDS011;16778;48.154;15.094;2024-02-04T13:20:32;2.37;;;1.50;;
8161;SDS011;16778;48.154;15.094;2024-02-04T13:22:58;2.43;;;1.70;;
8161;SDS011;16778;48.154;15.094;2024-02-04T13:25:25;5.43;;;1.70;;
8161;SDS011;16778;48.154;15.094;2024-02-04T13:27:52;2.23;;;1.57;;
8161;SDS011;16778;48.154;15.094;2024-02-04T13:30:18;1.87;;;1.43;;
8161;SDS011;16778;48.154;15.094;2024-02-04T13:32:44;4.13;;;1.70;;
8161;SDS011;16778;48.154;15.094;2024-02-04T13:35:10;2.00;;;1.40;;
8161;SDS011;16778;48.154;15.094;2024-02-04T13:37:40;2.00;;;1.43;;
8161;SDS011;16778;48.154;15.094;2024-02-04T13:40:16;4.47;;;1.60;;
8161;SDS011;16778;48.154;15.094;2024-02-04T13:42:44;1.93;;;1.30;;
8161;SDS011;16778;48.154;15.094;2024-02-04T13:45:10;3.93;;;1.50;;
8161;SDS011;16778;48.154;15.094;2024-02-04T13:47:40;3.47;;;1.73;;
8161;SDS011;16778;48.154;15.094;2024-02-04T13:50:07;1.90;;;1.50;;
8161;SDS011;16778;48.154;15.094;2024-02-04T13:52:34;3.13;;;1.63;;
8161;SDS011;16778;48.154;15.094;2024-02-04T13:55:01;1.97;;;1.30;;
8161;SDS011;16778;48.154;15.094;2024-02-04T13:57:30;3.77;;;1.70;;
8161;SDS011;16778;48.154;15.094;2024-02-04T13:59:56;6.07;;;1.40;;
8161;SDS011;16778;48.154;15.094;2024-02-04T14:02:22;3.17;;;1.27;;
8161;SDS011;16778;48.154;15.094;2024-02-04T14:04:50;2.73;;;1.53;;
8161;SDS011;16778;48.154;15.094;2024-02-04T14:07:16;3.53;;;1.30;;
8161;SDS011;16778;48.154;15.094;2024-02-04T14:09:41;3.20;;;1.30;;
8161;SDS011;16778;48.154;15.094;2024-02-04T14:12:07;2.57;;;1.20;;
8161;SDS011;16778;48.154;15.094;2024-02-04T14:14:34;3.40;;;1.27;;
8161;SDS011;16778;48.154;15.094;2024-02-04T14:16:59;2.53;;;1.60;;
8161;SDS011;16778;48.154;15.094;2024-02-04T14:19:25;2.60;;;1.63;;
8161;SDS011;16778;48.154;15.094;2024-02-04T14:21:51;3.10;;;1.63;;
8161;SDS011;16778;48.154;15.094;2024-02-04T14:24:17;2.20;;;1.30;;
8161;SDS011;16778;48.154;15.094;2024-02-04T14:26:43;2.47;;;1.57;;
8161;SDS011;16778;48.154;15.094;2024-02-04T14:29:09;2.97;;;1.27;;
8161;SDS011;16778;48.154;15.094;2024-02-04T14:31:35;7.77;;;1.60;;
8161;SDS011;16778;48.154;15.094;2024-02-04T14:34:01;1.60;;;1.10;;
8161;SDS011;16778;48.154;15.094;2024-02-04T14:36:27;1.53;;;1.10;;
8161;SDS011;16778;48.154;15.094;2024-02-04T14:38:53;1.73;;;0.93;;
8161;SDS011;16778;48.154;15.094;2024-02-04T14:41:19;2.23;;;1.20;;
8161;SDS011;16778;48.154;15.094;2024-02-04T14:43:44;1.77;;;1.07;;
8161;SDS011;16778;48.154;15.094;2024-02-04T14:46:10;1.70;;;1.10;;
8161;SDS011;16778;48.154;15.094;2024-02-04T14:48:36;2.10;;;1.07;;
8161;SDS011;16778;48.154;15.094;2024-02-04T14:51:02;1.57;;;0.87;;
8161;SDS011;16778;48.154;15.094;2024-02-04T14:53:29;1.40;;;0.90;;